sensor_id;sensor_type;location;lat;lon;timestamp;temperature;humidity
66827;DHT22;53727;45.242;19.796;2022-07-10T00:01:27;487.30;1971.20
66827;DHT22;53727;45.242;19.796;2022-07-10T00:03:53;487.30;1971.20
66827;DHT22;53727;45.242;19.796;2022-07-10T00:06:20;487.30;1945.60
66827;DHT22;53727;45.242;19.796;2022-07-10T00:08:46;487.30;1971.20
66827;DHT22;53727;45.242;19.796;2022-07-10T00:11:11;487.30;1971.20
66827;DHT22;53727;45.242;19.796;2022-07-10T00:13:38;487.20;1971.20
66827;DHT22;53727;45.242;19.796;2022-07-10T00:16:04;487.30;1971.20
66827;DHT22;53727;45.242;19.796;2022-07-10T00:18:29;487.20;1996.80
66827;DHT22;53727;45.242;19.796;2022-07-10T00:20:55;487.20;2022.40
66827;DHT22;53727;45.242;19.796;2022-07-10T00:23:21;487.20;2022.40
66827;DHT22;53727;45.242;19.796;2022-07-10T00:25:47;486.80;2073.60
66827;DHT22;53727;45.242;19.796;2022-07-10T00:28:13;486.60;2099.20
66827;DHT22;53727;45.242;19.796;2022-07-10T00:30:38;486.70;2099.20
66827;DHT22;53727;45.242;19.796;2022-07-10T00:33:04;486.50;2150.40
66827;DHT22;53727;45.242;19.796;2022-07-10T00:35:30;486.50;2150.40
66827;DHT22;53727;45.242;19.796;2022-07-10T00:37:56;486.50;2150.40
66827;DHT22;53727;45.242;19.796;2022-07-10T00:40:22;486.40;2176.00
66827;DHT22;53727;45.242;19.796;2022-07-10T00:42:47;486.50;2150.40
66827;DHT22;53727;45.242;19.796;2022-07-10T00:45:13;461.70;2201.60
66827;DHT22;53727;45.242;19.796;2022-07-10T00:47:39;461.70;2201.60
66827;DHT22;53727;45.242;19.796;2022-07-10T00:50:06;461.60;2227.20
66827;DHT22;53727;45.242;19.796;2022-07-10T00:52:32;461.50;2252.80
66827;DHT22;53727;45.242;19.796;2022-07-10T00:55:07;461.30;2278.40
66827;DHT22;53727;45.242;19.796;2022-07-10T00:57:35;461.40;2278.40
66827;DHT22;53727;45.242;19.796;2022-07-10T01:00:03;461.40;2278.40
66827;DHT22;53727;45.242;19.796;2022-07-10T01:02:29;461.30;2278.40
66827;DHT22;53727;45.242;19.796;2022-07-10T01:04:57;461.30;2304.00
66827;DHT22;53727;45.242;19.796;2022-07-10T01:07:23;461.40;2304.00
66827;DHT22;53727;45.242;19.796;2022-07-10T01:09:48;461.50;2278.40
66827;DHT22;53727;45.242;19.796;2022-07-10T01:12:15;461.30;2304.00
66827;DHT22;53727;45.242;19.796;2022-07-10T01:14:41;461.30;2329.60
66827;DHT22;53727;45.242;19.796;2022-07-10T01:17:10;461.30;2329.60
66827;DHT22;53727;45.242;19.796;2022-07-10T01:19:36;461.10;2355.20
66827;DHT22;53727;45.242;19.796;2022-07-10T01:22:03;461.10;2380.80
66827;DHT22;53727;45.242;19.796;2022-07-10T01:24:28;461.10;2380.80
66827;DHT22;53727;45.242;19.796;2022-07-10T01:26:54;461.10;2380.80
66827;DHT22;53727;45.242;19.796;2022-07-10T01:29:22;460.90;2380.80
66827;DHT22;53727;45.242;19.796;2022-07-10T01:31:47;460.90;2380.80
66827;DHT22;53727;45.242;19.796;2022-07-10T01:34:13;460.90;2380.80
66827;DHT22;53727;45.242;19.796;2022-07-10T01:36:39;460.80;2380.80
66827;DHT22;53727;45.242;19.796;2022-07-10T01:39:06;436.10;2355.20
66827;DHT22;53727;45.242;19.796;2022-07-10T01:41:32;436.10;2355.20
66827;DHT22;53727;45.242;19.796;2022-07-10T01:43:58;436.10;2355.20
66827;DHT22;53727;45.242;19.796;2022-07-10T01:46:24;436.10;2355.20
66827;DHT22;53727;45.242;19.796;2022-07-10T01:48:51;436.10;2355.20
66827;DHT22;53727;45.242;19.796;2022-07-10T01:51:16;436.10;2355.20
66827;DHT22;53727;45.242;19.796;2022-07-10T01:53:42;460.80;2380.80
66827;DHT22;53727;45.242;19.796;2022-07-10T01:56:10;436.10;2355.20
66827;DHT22;53727;45.242;19.796;2022-07-10T01:58:36;436.00;2355.20
66827;DHT22;53727;45.242;19.796;2022-07-10T02:01:03;436.00;2355.20
66827;DHT22;53727;45.242;19.796;2022-07-10T02:03:29;436.10;2355.20
66827;DHT22;53727;45.242;19.796;2022-07-10T02:06:13;460.80;2380.80
66827;DHT22;53727;45.242;19.796;2022-07-10T02:08:39;436.00;2355.20
66827;DHT22;53727;45.242;19.796;2022-07-10T02:11:05;436.10;2355.20
66827;DHT22;53727;45.242;19.796;2022-07-10T02:13:30;435.90;2355.20
66827;DHT22;53727;45.242;19.796;2022-07-10T02:15:57;436.00;2355.20
66827;DHT22;53727;45.242;19.796;2022-07-10T02:18:23;436.10;2355.20
66827;DHT22;53727;45.242;19.796;2022-07-10T02:20:50;435.90;2355.20
66827;DHT22;53727;45.242;19.796;2022-07-10T02:23:17;435.90;2355.20
66827;DHT22;53727;45.242;19.796;2022-07-10T02:25:42;435.90;2355.20
66827;DHT22;53727;45.242;19.796;2022-07-10T02:28:09;435.80;2355.20
66827;DHT22;53727;45.242;19.796;2022-07-10T02:30:34;435.80;2355.20
66827;DHT22;53727;45.242;19.796;2022-07-10T02:33:00;435.80;2355.20
66827;DHT22;53727;45.242;19.796;2022-07-10T02:35:26;435.80;2355.20
66827;DHT22;53727;45.242;19.796;2022-07-10T02:37:52;435.80;2355.20
66827;DHT22;53727;45.242;19.796;2022-07-10T02:40:17;435.80;2355.20
66827;DHT22;53727;45.242;19.796;2022-07-10T02:42:43;435.80;2355.20
66827;DHT22;53727;45.242;19.796;2022-07-10T02:45:09;435.90;2355.20
66827;DHT22;53727;45.242;19.796;2022-07-10T02:47:35;435.80;2355.20
66827;DHT22;53727;45.242;19.796;2022-07-10T02:50:01;435.90;2355.20
66827;DHT22;53727;45.242;19.796;2022-07-10T02:52:27;435.80;2355.20
66827;DHT22;53727;45.242;19.796;2022-07-10T02:54:56;435.80;2355.20
66827;DHT22;53727;45.242;19.796;2022-07-10T02:57:22;436.00;2355.20
66827;DHT22;53727;45.242;19.796;2022-07-10T02:59:48;436.10;2355.20
66827;DHT22;53727;45.242;19.796;2022-07-10T03:02:13;436.00;2355.20
66827;DHT22;53727;45.242;19.796;2022-07-10T03:04:39;435.90;2355.20
66827;DHT22;53727;45.242;19.796;2022-07-10T03:07:05;435.90;2355.20
66827;DHT22;53727;45.242;19.796;2022-07-10T03:09:31;435.80;2355.20
66827;DHT22;53727;45.242;19.796;2022-07-10T03:11:56;435.70;2355.20
66827;DHT22;53727;45.242;19.796;2022-07-10T03:14:22;435.80;2355.20
66827;DHT22;53727;45.242;19.796;2022-07-10T03:16:48;435.80;2355.20
66827;DHT22;53727;45.242;19.796;2022-07-10T03:19:13;435.80;2355.20
66827;DHT22;53727;45.242;19.796;2022-07-10T03:21:39;435.90;2355.20
66827;DHT22;53727;45.242;19.796;2022-07-10T03:24:05;436.10;2355.20
66827;DHT22;53727;45.242;19.796;2022-07-10T03:26:31;436.10;2355.20
66827;DHT22;53727;45.242;19.796;2022-07-10T03:28:57;436.10;2355.20
66827;DHT22;53727;45.242;19.796;2022-07-10T03:31:23;436.10;2355.20
66827;DHT22;53727;45.242;19.796;2022-07-10T03:33:48;436.10;2355.20
66827;DHT22;53727;45.242;19.796;2022-07-10T03:36:14;436.10;2355.20
66827;DHT22;53727;45.242;19.796;2022-07-10T03:38:41;436.10;2355.20
66827;DHT22;53727;45.242;19.796;2022-07-10T03:41:06;436.10;2355.20
66827;DHT22;53727;45.242;19.796;2022-07-10T03:43:32;436.10;2355.20
66827;DHT22;53727;45.242;19.796;2022-07-10T03:45:58;460.90;2380.80
66827;DHT22;53727;45.242;19.796;2022-07-10T03:48:24;460.90;2380.80
66827;DHT22;53727;45.242;19.796;2022-07-10T03:50:51;461.00;2380.80
66827;DHT22;53727;45.242;19.796;2022-07-10T03:53:17;461.10;2380.80
66827;DHT22;53727;45.242;19.796;2022-07-10T03:55:43;460.90;2380.80
66827;DHT22;53727;45.242;19.796;2022-07-10T03:58:09;460.90;2380.80
66827;DHT22;53727;45.242;19.796;2022-07-10T04:00:34;460.90;2380.80
66827;DHT22;53727;45.242;19.796;2022-07-10T04:03:04;460.90;2380.80
66827;DHT22;53727;45.242;19.796;2022-07-10T04:05:31;460.90;2380.80
66827;DHT22;53727;45.242;19.796;2022-07-10T04:07:58;461.00;2380.80
66827;DHT22;53727;45.242;19.796;2022-07-10T04:10:25;461.10;2380.80
66827;DHT22;53727;45.242;19.796;2022-07-10T04:12:51;461.20;2380.80
66827;DHT22;53727;45.242;19.796;2022-07-10T04:15:17;461.20;2380.80
66827;DHT22;53727;45.242;19.796;2022-07-10T04:17:43;461.40;2380.80
66827;DHT22;53727;45.242;19.796;2022-07-10T04:20:09;461.30;2380.80
66827;DHT22;53727;45.242;19.796;2022-07-10T04:22:35;461.30;2380.80
66827;DHT22;53727;45.242;19.796;2022-07-10T04:25:01;461.60;2380.80
66827;DHT22;53727;45.242;19.796;2022-07-10T04:27:27;461.70;2380.80
66827;DHT22;53727;45.242;19.796;2022-07-10T04:29:53;461.70;2380.80
66827;DHT22;53727;45.242;19.796;2022-07-10T04:32:18;486.50;2380.80
66827;DHT22;53727;45.242;19.796;2022-07-10T04:34:44;461.70;2380.80
66827;DHT22;53727;45.242;19.796;2022-07-10T04:37:10;461.70;2380.80
66827;DHT22;53727;45.242;19.796;2022-07-10T04:39:36;486.40;2380.80
66827;DHT22;53727;45.242;19.796;2022-07-10T04:42:06;461.70;2380.80
66827;DHT22;53727;45.242;19.796;2022-07-10T04:44:32;461.70;2380.80
66827;DHT22;53727;45.242;19.796;2022-07-10T04:46:58;461.70;2380.80
66827;DHT22;53727;45.242;19.796;2022-07-10T04:49:24;461.70;2380.80
66827;DHT22;53727;45.242;19.796;2022-07-10T04:51:50;486.40;2380.80
66827;DHT22;53727;45.242;19.796;2022-07-10T04:54:16;486.40;2380.80
66827;DHT22;53727;45.242;19.796;2022-07-10T04:56:42;486.40;2380.80
66827;DHT22;53727;45.242;19.796;2022-07-10T04:59:09;486.50;2380.80
66827;DHT22;53727;45.242;19.796;2022-07-10T05:01:35;486.50;2380.80
66827;DHT22;53727;45.242;19.796;2022-07-10T05:04:02;461.70;2380.80
66827;DHT22;53727;45.242;19.796;2022-07-10T05:06:28;486.40;2380.80
66827;DHT22;53727;45.242;19.796;2022-07-10T05:08:54;461.70;2380.80
66827;DHT22;53727;45.242;19.796;2022-07-10T05:11:21;461.70;2380.80
66827;DHT22;53727;45.242;19.796;2022-07-10T05:13:47;461.70;2380.80
66827;DHT22;53727;45.242;19.796;2022-07-10T05:16:14;461.70;2380.80
66827;DHT22;53727;45.242;19.796;2022-07-10T05:18:40;486.60;2380.80
66827;DHT22;53727;45.242;19.796;2022-07-10T05:21:07;486.60;2380.80
66827;DHT22;53727;45.242;19.796;2022-07-10T05:23:33;486.60;2380.80
66827;DHT22;53727;45.242;19.796;2022-07-10T05:25:59;486.70;2380.80
66827;DHT22;53727;45.242;19.796;2022-07-10T05:28:24;486.60;2380.80
66827;DHT22;53727;45.242;19.796;2022-07-10T05:30:50;486.60;2380.80
66827;DHT22;53727;45.242;19.796;2022-07-10T05:33:16;486.70;2380.80
66827;DHT22;53727;45.242;19.796;2022-07-10T05:35:42;486.70;2380.80
66827;DHT22;53727;45.242;19.796;2022-07-10T05:38:08;486.90;2380.80
66827;DHT22;53727;45.242;19.796;2022-07-10T05:40:34;487.20;2380.80
66827;DHT22;53727;45.242;19.796;2022-07-10T05:43:00;487.30;2380.80
66827;DHT22;53727;45.242;19.796;2022-07-10T05:45:25;512.00;2380.80
66827;DHT22;53727;45.242;19.796;2022-07-10T05:47:51;487.30;2380.80
66827;DHT22;53727;45.242;19.796;2022-07-10T05:50:17;487.30;2380.80
66827;DHT22;53727;45.242;19.796;2022-07-10T05:52:43;487.30;2380.80
66827;DHT22;53727;45.242;19.796;2022-07-10T05:55:09;487.30;2380.80
66827;DHT22;53727;45.242;19.796;2022-07-10T05:57:35;512.00;2380.80
66827;DHT22;53727;45.242;19.796;2022-07-10T06:00:06;487.30;2380.80
66827;DHT22;53727;45.242;19.796;2022-07-10T06:02:32;512.00;2380.80
66827;DHT22;53727;45.242;19.796;2022-07-10T06:04:57;512.00;2380.80
66827;DHT22;53727;45.242;19.796;2022-07-10T06:07:23;512.00;2380.80
66827;DHT22;53727;45.242;19.796;2022-07-10T06:09:49;487.30;2380.80
66827;DHT22;53727;45.242;19.796;2022-07-10T06:12:15;487.30;2380.80
66827;DHT22;53727;45.242;19.796;2022-07-10T06:14:43;487.30;2380.80
66827;DHT22;53727;45.242;19.796;2022-07-10T06:17:09;512.10;2380.80
66827;DHT22;53727;45.242;19.796;2022-07-10T06:19:35;512.10;2380.80
66827;DHT22;53727;45.242;19.796;2022-07-10T06:22:00;512.20;2380.80
66827;DHT22;53727;45.242;19.796;2022-07-10T06:24:45;512.40;2380.80
66827;DHT22;53727;45.242;19.796;2022-07-10T06:27:11;512.50;2380.80
66827;DHT22;53727;45.242;19.796;2022-07-10T06:29:37;512.50;2380.80
66827;DHT22;53727;45.242;19.796;2022-07-10T06:32:03;512.80;2380.80
66827;DHT22;53727;45.242;19.796;2022-07-10T06:34:29;537.60;2406.40
66827;DHT22;53727;45.242;19.796;2022-07-10T06:36:55;537.80;2406.40
66827;DHT22;53727;45.242;19.796;2022-07-10T06:39:21;538.20;2406.40
66827;DHT22;53727;45.242;19.796;2022-07-10T06:41:47;538.30;2406.40
66827;DHT22;53727;45.242;19.796;2022-07-10T06:44:13;538.40;2380.80
66827;DHT22;53727;45.242;19.796;2022-07-10T06:46:38;563.20;2355.20
66827;DHT22;53727;45.242;19.796;2022-07-10T06:49:04;563.30;2355.20
66827;DHT22;53727;45.242;19.796;2022-07-10T06:51:31;563.50;2355.20
66827;DHT22;53727;45.242;19.796;2022-07-10T06:53:57;563.60;2304.00
66827;DHT22;53727;45.242;19.796;2022-07-10T06:56:23;563.40;2252.80
66827;DHT22;53727;45.242;19.796;2022-07-10T06:58:49;563.40;2252.80
66827;DHT22;53727;45.242;19.796;2022-07-10T07:01:15;563.40;2227.20
66827;DHT22;53727;45.242;19.796;2022-07-10T07:03:40;563.40;2252.80
66827;DHT22;53727;45.242;19.796;2022-07-10T07:06:06;563.70;2227.20
66827;DHT22;53727;45.242;19.796;2022-07-10T07:08:32;563.90;2201.60
66827;DHT22;53727;45.242;19.796;2022-07-10T07:11:02;563.90;2201.60
66827;DHT22;53727;45.242;19.796;2022-07-10T07:13:28;589.00;2099.20
66827;DHT22;53727;45.242;19.796;2022-07-10T07:15:54;588.90;2099.20
66827;DHT22;53727;45.242;19.796;2022-07-10T07:18:25;588.80;2073.60
66827;DHT22;53727;45.242;19.796;2022-07-10T07:21:01;588.80;2073.60
66827;DHT22;53727;45.242;19.796;2022-07-10T07:23:45;564.00;2073.60
66827;DHT22;53727;45.242;19.796;2022-07-10T07:26:11;563.80;2099.20
66827;DHT22;53727;45.242;19.796;2022-07-10T07:28:37;563.70;2099.20
66827;DHT22;53727;45.242;19.796;2022-07-10T07:31:02;563.80;2099.20
66827;DHT22;53727;45.242;19.796;2022-07-10T07:33:29;563.70;2073.60
66827;DHT22;53727;45.242;19.796;2022-07-10T07:35:55;563.70;2099.20
66827;DHT22;53727;45.242;19.796;2022-07-10T07:38:20;563.80;2048.00
66827;DHT22;53727;45.242;19.796;2022-07-10T07:40:46;563.60;2099.20
66827;DHT22;53727;45.242;19.796;2022-07-10T07:43:12;563.70;2150.40
66827;DHT22;53727;45.242;19.796;2022-07-10T07:45:38;563.80;2124.80
66827;DHT22;53727;45.242;19.796;2022-07-10T07:48:04;563.90;2124.80
66827;DHT22;53727;45.242;19.796;2022-07-10T07:50:34;564.00;2124.80
66827;DHT22;53727;45.242;19.796;2022-07-10T07:53:02;563.90;2099.20
66827;DHT22;53727;45.242;19.796;2022-07-10T07:55:30;563.90;2124.80
66827;DHT22;53727;45.242;19.796;2022-07-10T07:57:56;563.80;2124.80
66827;DHT22;53727;45.242;19.796;2022-07-10T08:00:24;563.90;2124.80
66827;DHT22;53727;45.242;19.796;2022-07-10T08:02:50;563.90;2124.80
66827;DHT22;53727;45.242;19.796;2022-07-10T08:05:17;563.90;2073.60
66827;DHT22;53727;45.242;19.796;2022-07-10T08:07:46;563.90;2073.60
66827;DHT22;53727;45.242;19.796;2022-07-10T08:10:14;564.10;2048.00
66827;DHT22;53727;45.242;19.796;2022-07-10T08:12:41;588.90;2022.40
66827;DHT22;53727;45.242;19.796;2022-07-10T08:15:09;589.00;1996.80
66827;DHT22;53727;45.242;19.796;2022-07-10T08:17:35;589.10;1996.80
66827;DHT22;53727;45.242;19.796;2022-07-10T08:22:27;589.40;1971.20
66827;DHT22;53727;45.242;19.796;2022-07-10T08:24:53;589.30;1945.60
66827;DHT22;53727;45.242;19.796;2022-07-10T08:27:19;589.30;1945.60
66827;DHT22;53727;45.242;19.796;2022-07-10T08:29:45;589.30;1894.40
66827;DHT22;53727;45.242;19.796;2022-07-10T08:32:10;589.30;1920.00
66827;DHT22;53727;45.242;19.796;2022-07-10T08:34:36;589.30;1920.00
66827;DHT22;53727;45.242;19.796;2022-07-10T08:37:02;589.40;1945.60
66827;DHT22;53727;45.242;19.796;2022-07-10T09:26:08;640.40;1612.80
66827;DHT22;53727;45.242;19.796;2022-07-10T09:28:34;640.10;1638.40
66827;DHT22;53727;45.242;19.796;2022-07-10T09:31:00;640.10;1612.80
66827;DHT22;53727;45.242;19.796;2022-07-10T09:33:30;640.10;1612.80
66827;DHT22;53727;45.242;19.796;2022-07-10T09:41:27;640.20;1536.00
66827;DHT22;53727;45.242;19.796;2022-07-10T09:43:57;640.20;1536.00
66827;DHT22;53727;45.242;19.796;2022-07-10T09:46:30;640.20;1510.40
66827;DHT22;53727;45.242;19.796;2022-07-10T09:49:06;640.30;1536.00
66827;DHT22;53727;45.242;19.796;2022-07-10T09:51:50;640.20;1536.00
66827;DHT22;53727;45.242;19.796;2022-07-10T09:54:16;640.40;1510.40
66827;DHT22;53727;45.242;19.796;2022-07-10T09:56:45;640.50;1510.40
66827;DHT22;53727;45.242;19.796;2022-07-10T09:59:19;640.40;1510.40
66827;DHT22;53727;45.242;19.796;2022-07-10T10:01:52;640.40;1484.80
66827;DHT22;53727;45.242;19.796;2022-07-10T10:04:20;640.50;1536.00
66827;DHT22;53727;45.242;19.796;2022-07-10T10:06:51;640.40;1484.80
66827;DHT22;53727;45.242;19.796;2022-07-10T10:11:44;640.60;1484.80
66827;DHT22;53727;45.242;19.796;2022-07-10T10:14:12;640.80;1510.40
66827;DHT22;53727;45.242;19.796;2022-07-10T10:46:55;666.10;1433.60
66827;DHT22;53727;45.242;19.796;2022-07-10T10:49:55;666.30;1433.60
66827;DHT22;53727;45.242;19.796;2022-07-10T10:52:23;666.00;1433.60
66827;DHT22;53727;45.242;19.796;2022-07-10T10:59:58;665.70;1433.60
66827;DHT22;53727;45.242;19.796;2022-07-10T11:02:26;666.10;1433.60
66827;DHT22;53727;45.242;19.796;2022-07-10T11:08:04;666.10;1331.20
66827;DHT22;53727;45.242;19.796;2022-07-10T11:10:35;666.10;1331.20
66827;DHT22;53727;45.242;19.796;2022-07-10T11:15:45;666.00;1356.80
66827;DHT22;53727;45.242;19.796;2022-07-10T11:18:13;666.30;1356.80
66827;DHT22;53727;45.242;19.796;2022-07-10T11:20:44;666.40;1331.20
66827;DHT22;53727;45.242;19.796;2022-07-10T11:26:06;666.10;1356.80
66827;DHT22;53727;45.242;19.796;2022-07-10T11:28:49;665.80;1356.80
66827;DHT22;53727;45.242;19.796;2022-07-10T11:31:15;665.90;1382.40
66827;DHT22;53727;45.242;19.796;2022-07-10T11:33:43;665.90;1356.80
66827;DHT22;53727;45.242;19.796;2022-07-10T11:36:16;666.30;1331.20
66827;DHT22;53727;45.242;19.796;2022-07-10T11:38:46;666.20;1305.60
66827;DHT22;53727;45.242;19.796;2022-07-10T11:41:19;666.20;1305.60
66827;DHT22;53727;45.242;19.796;2022-07-10T11:43:56;691.40;1305.60
66827;DHT22;53727;45.242;19.796;2022-07-10T11:46:27;691.50;1305.60
66827;DHT22;53727;45.242;19.796;2022-07-10T11:48:53;691.30;1356.80
66827;DHT22;53727;45.242;19.796;2022-07-10T11:51:24;666.50;1356.80
66827;DHT22;53727;45.242;19.796;2022-07-10T11:56:20;691.30;1356.80
66827;DHT22;53727;45.242;19.796;2022-07-10T11:59:02;691.40;1356.80
66827;DHT22;53727;45.242;19.796;2022-07-10T12:04:07;691.70;1331.20
66827;DHT22;53727;45.242;19.796;2022-07-10T12:06:37;691.50;1331.20
66827;DHT22;53727;45.242;19.796;2022-07-10T12:09:07;691.50;1331.20
66827;DHT22;53727;45.242;19.796;2022-07-10T12:11:34;691.70;1331.20
66827;DHT22;53727;45.242;19.796;2022-07-10T12:14:18;691.40;1331.20
66827;DHT22;53727;45.242;19.796;2022-07-10T12:16:46;691.40;1331.20
66827;DHT22;53727;45.242;19.796;2022-07-10T12:19:14;691.80;1331.20
66827;DHT22;53727;45.242;19.796;2022-07-10T12:21:44;691.40;1331.20
66827;DHT22;53727;45.242;19.796;2022-07-10T12:24:10;691.60;1305.60
66827;DHT22;53727;45.242;19.796;2022-07-10T12:26:41;691.70;1331.20
66827;DHT22;53727;45.242;19.796;2022-07-10T12:29:30;691.90;1280.00
66827;DHT22;53727;45.242;19.796;2022-07-10T12:31:58;692.10;1228.80
66827;DHT22;53727;45.242;19.796;2022-07-10T12:34:41;692.10;1228.80
66827;DHT22;53727;45.242;19.796;2022-07-10T12:37:09;716.80;1280.00
66827;DHT22;53727;45.242;19.796;2022-07-10T12:39:48;692.00;1280.00
66827;DHT22;53727;45.242;19.796;2022-07-10T12:42:25;691.60;1280.00
66827;DHT22;53727;45.242;19.796;2022-07-10T12:44:51;691.50;1280.00
66827;DHT22;53727;45.242;19.796;2022-07-10T12:47:20;691.20;1280.00
66827;DHT22;53727;45.242;19.796;2022-07-10T12:49:52;691.40;1305.60
66827;DHT22;53727;45.242;19.796;2022-07-10T12:55:19;691.50;1280.00
66827;DHT22;53727;45.242;19.796;2022-07-10T13:00:14;691.40;1305.60
66827;DHT22;53727;45.242;19.796;2022-07-10T13:02:40;691.90;1254.40
66827;DHT22;53727;45.242;19.796;2022-07-10T13:05:07;692.10;1203.20
66827;DHT22;53727;45.242;19.796;2022-07-10T13:07:35;717.10;1254.40
66827;DHT22;53727;45.242;19.796;2022-07-10T13:10:05;717.20;1228.80
66827;DHT22;53727;45.242;19.796;2022-07-10T13:12:35;717.20;1228.80
66827;DHT22;53727;45.242;19.796;2022-07-10T13:15:02;717.20;1228.80
66827;DHT22;53727;45.242;19.796;2022-07-10T13:17:28;717.40;1228.80
66827;DHT22;53727;45.242;19.796;2022-07-10T13:19:54;717.10;1228.80
66827;DHT22;53727;45.242;19.796;2022-07-10T13:22:20;717.10;1254.40
66827;DHT22;53727;45.242;19.796;2022-07-10T13:24:46;717.10;1228.80
66827;DHT22;53727;45.242;19.796;2022-07-10T13:27:12;716.80;1254.40
66827;DHT22;53727;45.242;19.796;2022-07-10T13:29:38;717.10;1228.80
66827;DHT22;53727;45.242;19.796;2022-07-10T13:32:04;716.90;1228.80
66827;DHT22;53727;45.242;19.796;2022-07-10T13:34:29;716.90;1228.80
66827;DHT22;53727;45.242;19.796;2022-07-10T13:36:55;717.10;1228.80
66827;DHT22;53727;45.242;19.796;2022-07-10T13:39:21;717.10;1254.40
66827;DHT22;53727;45.242;19.796;2022-07-10T13:41:47;717.30;1254.40
66827;DHT22;53727;45.242;19.796;2022-07-10T13:44:13;717.30;1228.80
66827;DHT22;53727;45.242;19.796;2022-07-10T13:46:38;717.40;1228.80
66827;DHT22;53727;45.242;19.796;2022-07-10T13:49:06;717.20;1228.80
66827;DHT22;53727;45.242;19.796;2022-07-10T13:51:32;692.10;1228.80
66827;DHT22;53727;45.242;19.796;2022-07-10T13:53:57;691.90;1254.40
66827;DHT22;53727;45.242;19.796;2022-07-10T13:56:23;691.90;1228.80
66827;DHT22;53727;45.242;19.796;2022-07-10T13:58:51;716.80;1254.40
66827;DHT22;53727;45.242;19.796;2022-07-10T14:01:17;717.10;1228.80
66827;DHT22;53727;45.242;19.796;2022-07-10T14:03:43;717.10;1228.80
66827;DHT22;53727;45.242;19.796;2022-07-10T14:06:09;692.10;1228.80
66827;DHT22;53727;45.242;19.796;2022-07-10T14:08:35;691.70;1254.40
66827;DHT22;53727;45.242;19.796;2022-07-10T14:11:00;691.70;1254.40
66827;DHT22;53727;45.242;19.796;2022-07-10T14:13:26;691.60;1280.00
66827;DHT22;53727;45.242;19.796;2022-07-10T14:15:52;691.40;1305.60
66827;DHT22;53727;45.242;19.796;2022-07-10T14:18:19;691.60;1331.20
66827;DHT22;53727;45.242;19.796;2022-07-10T14:21:04;691.80;1280.00
66827;DHT22;53727;45.242;19.796;2022-07-10T14:23:30;692.00;1280.00
66827;DHT22;53727;45.242;19.796;2022-07-10T14:25:57;716.80;1280.00
66827;DHT22;53727;45.242;19.796;2022-07-10T14:28:23;717.00;1254.40
66827;DHT22;53727;45.242;19.796;2022-07-10T14:30:49;717.10;1280.00
66827;DHT22;53727;45.242;19.796;2022-07-10T14:33:16;717.20;1228.80
66827;DHT22;53727;45.242;19.796;2022-07-10T14:35:42;717.30;1228.80
66827;DHT22;53727;45.242;19.796;2022-07-10T14:38:08;717.10;1203.20
66827;DHT22;53727;45.242;19.796;2022-07-10T14:40:34;716.90;1254.40
66827;DHT22;53727;45.242;19.796;2022-07-10T14:43:00;717.00;1254.40
66827;DHT22;53727;45.242;19.796;2022-07-10T14:45:26;717.10;1254.40
66827;DHT22;53727;45.242;19.796;2022-07-10T14:47:51;716.90;1152.00
66827;DHT22;53727;45.242;19.796;2022-07-10T14:50:17;717.00;1203.20
66827;DHT22;53727;45.242;19.796;2022-07-10T14:52:43;717.30;1203.20
66827;DHT22;53727;45.242;19.796;2022-07-10T14:55:09;717.30;1228.80
66827;DHT22;53727;45.242;19.796;2022-07-10T14:57:35;717.10;1228.80
66827;DHT22;53727;45.242;19.796;2022-07-10T15:00:01;717.20;1228.80
66827;DHT22;53727;45.242;19.796;2022-07-10T15:02:26;717.00;1228.80
66827;DHT22;53727;45.242;19.796;2022-07-10T15:04:52;716.90;1177.60
66827;DHT22;53727;45.242;19.796;2022-07-10T15:07:18;716.90;1228.80
66827;DHT22;53727;45.242;19.796;2022-07-10T15:09:47;717.10;1228.80
66827;DHT22;53727;45.242;19.796;2022-07-10T15:12:12;717.10;1356.80
66827;DHT22;53727;45.242;19.796;2022-07-10T15:14:38;692.10;1331.20
66827;DHT22;53727;45.242;19.796;2022-07-10T15:17:04;692.00;1356.80
66827;DHT22;53727;45.242;19.796;2022-07-10T15:19:30;691.90;1331.20
66827;DHT22;53727;45.242;19.796;2022-07-10T15:21:56;691.60;1356.80
66827;DHT22;53727;45.242;19.796;2022-07-10T15:24:22;691.30;1305.60
66827;DHT22;53727;45.242;19.796;2022-07-10T15:26:48;691.20;1356.80
66827;DHT22;53727;45.242;19.796;2022-07-10T15:29:14;666.20;1408.00
66827;DHT22;53727;45.242;19.796;2022-07-10T15:31:39;615.00;1868.80
66827;DHT22;53727;45.242;19.796;2022-07-10T15:34:10;614.60;1894.40
66827;DHT22;53727;45.242;19.796;2022-07-10T15:36:40;589.60;1689.60
66827;DHT22;53727;45.242;19.796;2022-07-10T15:39:06;614.50;1817.60
66827;DHT22;53727;45.242;19.796;2022-07-10T15:41:31;614.60;1868.80
66827;DHT22;53727;45.242;19.796;2022-07-10T15:44:01;614.50;1766.40
66827;DHT22;53727;45.242;19.796;2022-07-10T15:46:27;614.80;1868.80
66827;DHT22;53727;45.242;19.796;2022-07-10T15:48:53;615.00;1894.40
66827;DHT22;53727;45.242;19.796;2022-07-10T15:51:19;615.00;1920.00
66827;DHT22;53727;45.242;19.796;2022-07-10T15:53:44;615.10;1868.80
66827;DHT22;53727;45.242;19.796;2022-07-10T15:56:10;615.10;1894.40
66827;DHT22;53727;45.242;19.796;2022-07-10T15:58:36;615.00;1971.20
66827;DHT22;53727;45.242;19.796;2022-07-10T16:01:01;614.90;1996.80
66827;DHT22;53727;45.242;19.796;2022-07-10T16:03:27;614.80;1971.20
66827;DHT22;53727;45.242;19.796;2022-07-10T16:05:53;614.90;1971.20
66827;DHT22;53727;45.242;19.796;2022-07-10T16:08:18;615.00;1920.00
66827;DHT22;53727;45.242;19.796;2022-07-10T16:10:47;615.00;1894.40
66827;DHT22;53727;45.242;19.796;2022-07-10T16:13:13;615.10;1868.80
66827;DHT22;53727;45.242;19.796;2022-07-10T16:15:39;615.20;1817.60
66827;DHT22;53727;45.242;19.796;2022-07-10T16:18:05;615.10;1792.00
66827;DHT22;53727;45.242;19.796;2022-07-10T16:20:31;615.00;1792.00
66827;DHT22;53727;45.242;19.796;2022-07-10T16:23:00;615.10;1740.80
66827;DHT22;53727;45.242;19.796;2022-07-10T16:25:26;615.20;1715.20
66827;DHT22;53727;45.242;19.796;2022-07-10T16:28:10;615.20;1689.60